createdAt,value
2017-11-18T00:00:51.754Z,6.10
2017-11-18T00:03:19.319Z,6.20
2017-11-18T00:05:47.654Z,6.20
2017-11-18T00:08:15.246Z,6.20
2017-11-18T00:10:42.806Z,6.20
2017-11-18T00:13:10.374Z,6.10
2017-11-18T00:15:38.720Z,6.00
2017-11-18T00:18:06.275Z,6.00
2017-11-18T00:20:33.830Z,6.00
2017-11-18T00:23:01.384Z,6.00
2017-11-18T00:25:28.956Z,6.00
2017-11-18T00:27:56.518Z,6.00
2017-11-18T00:30:24.080Z,6.00
2017-11-18T00:32:52.408Z,5.90
2017-11-18T00:35:20.746Z,5.90
2017-11-18T00:37:48.361Z,5.90
2017-11-18T00:40:15.930Z,5.90
2017-11-18T00:42:43.501Z,5.90
2017-11-18T00:45:11.060Z,5.90
2017-11-18T00:47:38.651Z,5.90
2017-11-18T00:50:06.223Z,5.90
2017-11-18T00:52:33.793Z,5.90
2017-11-18T00:55:01.349Z,5.90
2017-11-18T00:57:28.920Z,5.90
2017-11-18T00:59:57.269Z,5.90
2017-11-18T01:02:24.910Z,5.90
2017-11-18T01:04:52.484Z,5.90
2017-11-18T01:07:20.047Z,5.90
2017-11-18T01:09:47.647Z,5.80
2017-11-18T01:12:15.966Z,5.80
2017-11-18T01:14:43.544Z,5.80
2017-11-18T01:17:11.109Z,5.70
2017-11-18T01:19:38.705Z,5.70
2017-11-18T01:22:07.027Z,5.80
2017-11-18T01:24:34.610Z,5.80
2017-11-18T01:27:02.169Z,5.80
2017-11-18T01:29:29.729Z,5.80
2017-11-18T01:31:57.371Z,5.80
2017-11-18T01:34:24.916Z,5.80
2017-11-18T01:36:52.506Z,5.80
2017-11-18T01:39:20.099Z,5.80
2017-11-18T01:41:47.671Z,5.80
2017-11-18T01:44:16.010Z,5.80
2017-11-18T01:46:43.589Z,5.80
2017-11-18T01:49:11.185Z,5.80
2017-11-18T01:51:38.725Z,5.80
2017-11-18T01:54:07.089Z,5.80
2017-11-18T01:56:35.435Z,5.80
2017-11-18T01:59:02.985Z,5.80
2017-11-18T02:01:30.590Z,5.80
2017-11-18T02:03:58.135Z,5.70
2017-11-18T02:06:26.559Z,5.70
2017-11-18T02:08:54.898Z,5.70
2017-11-18T02:11:22.495Z,5.60
2017-11-18T02:13:50.842Z,5.70
2017-11-18T02:16:18.412Z,5.60
2017-11-18T02:18:45.979Z,5.70
2017-11-18T02:21:14.327Z,5.70
2017-11-18T02:23:42.673Z,5.70
2017-11-18T02:26:10.278Z,5.70
2017-11-18T02:28:37.832Z,5.70
2017-11-18T02:31:05.426Z,5.70
2017-11-18T02:33:33.949Z,5.60
2017-11-18T02:36:01.599Z,5.60
2017-11-18T02:38:29.208Z,5.70
2017-11-18T02:40:56.787Z,5.70
2017-11-18T02:43:25.137Z,5.70
2017-11-18T02:45:52.759Z,5.70
2017-11-18T02:48:20.333Z,5.70
2017-11-18T02:50:47.956Z,5.70
2017-11-18T02:53:16.306Z,5.60
2017-11-18T02:55:43.929Z,5.60
2017-11-18T02:58:11.500Z,5.60
2017-11-18T03:00:39.838Z,5.60
2017-11-18T03:03:08.187Z,5.60
2017-11-18T03:05:35.773Z,5.60
2017-11-18T03:08:03.348Z,5.70
2017-11-18T03:10:30.961Z,5.70
2017-11-18T03:12:58.545Z,5.70
2017-11-18T03:15:26.128Z,5.70
2017-11-18T03:17:53.715Z,5.70
2017-11-18T03:20:21.277Z,5.70
2017-11-18T03:22:48.840Z,5.70
2017-11-18T03:25:16.415Z,5.70
2017-11-18T03:27:43.982Z,5.70
2017-11-18T03:30:11.578Z,5.70
2017-11-18T03:32:39.928Z,5.70
2017-11-18T03:35:07.495Z,5.70
2017-11-18T03:37:35.838Z,5.80
2017-11-18T03:40:03.440Z,5.80
2017-11-18T03:42:31.019Z,5.80
2017-11-18T03:44:58.610Z,5.80
2017-11-18T03:47:26.962Z,5.80
2017-11-18T03:49:54.513Z,5.70
2017-11-18T03:52:22.063Z,5.70
2017-11-18T03:54:49.625Z,5.70
2017-11-18T03:57:17.219Z,5.70
2017-11-18T03:59:44.811Z,5.70
2017-11-18T04:02:13.137Z,5.70
2017-11-18T04:04:40.716Z,5.70
2017-11-18T04:07:08.285Z,5.60
2017-11-18T04:09:35.867Z,5.60
2017-11-18T04:12:04.185Z,5.70
2017-11-18T04:14:31.779Z,5.70
2017-11-18T04:16:59.343Z,5.70
2017-11-18T04:19:26.929Z,5.70
2017-11-18T04:21:55.246Z,5.70
2017-11-18T04:24:22.840Z,5.70
2017-11-18T04:26:50.441Z,5.70
2017-11-18T04:29:18.010Z,5.70
2017-11-18T04:31:45.559Z,5.70
2017-11-18T04:34:13.140Z,5.80
2017-11-18T04:36:40.708Z,5.80
2017-11-18T04:39:08.278Z,5.80
2017-11-18T04:41:35.866Z,5.80
2017-11-18T04:44:03.475Z,5.80
2017-11-18T04:46:31.067Z,5.80
2017-11-18T04:48:58.644Z,5.80
2017-11-18T04:51:26.236Z,5.90
2017-11-18T04:53:54.572Z,5.80
2017-11-18T04:56:22.128Z,5.80
2017-11-18T04:58:49.725Z,5.80
2017-11-18T05:01:18.059Z,5.80
2017-11-18T05:03:45.630Z,5.90
2017-11-18T05:06:13.199Z,5.90
2017-11-18T05:08:40.818Z,5.90
2017-11-18T05:11:08.372Z,5.90
2017-11-18T05:13:35.950Z,5.90
2017-11-18T05:16:03.556Z,5.90
2017-11-18T05:18:31.162Z,5.90
2017-11-18T05:20:58.756Z,5.90
2017-11-18T05:23:26.302Z,5.80
2017-11-18T05:25:53.870Z,5.80
2017-11-18T05:28:21.450Z,5.80
2017-11-18T05:30:49.014Z,5.80
2017-11-18T05:33:16.604Z,5.80
2017-11-18T05:35:44.930Z,5.90
2017-11-18T05:38:12.542Z,5.80
2017-11-18T05:40:40.867Z,5.80
2017-11-18T05:43:08.436Z,5.80
2017-11-18T05:45:35.990Z,5.80
2017-11-18T05:48:03.560Z,5.80
2017-11-18T05:50:31.117Z,5.80
2017-11-18T05:52:58.718Z,5.80
2017-11-18T05:55:27.048Z,5.90
2017-11-18T05:57:54.696Z,5.90
2017-11-18T06:00:22.267Z,5.90
2017-11-18T06:02:49.836Z,5.80
2017-11-18T06:05:17.419Z,5.90
2017-11-18T06:07:44.988Z,5.90
2017-11-18T06:10:13.324Z,5.90
2017-11-18T06:12:40.907Z,5.90
2017-11-18T06:15:08.476Z,5.90
2017-11-18T06:17:36.079Z,5.90
2017-11-18T06:20:03.660Z,5.90
2017-11-18T06:22:31.229Z,5.90
2017-11-18T06:24:58.789Z,5.90
2017-11-18T06:27:26.403Z,5.90
2017-11-18T06:29:54.727Z,5.80
2017-11-18T06:32:22.379Z,5.80
2017-11-18T06:34:49.951Z,5.80
2017-11-18T06:37:17.527Z,5.80
2017-11-18T06:39:45.090Z,5.80
2017-11-18T06:42:12.639Z,5.80
2017-11-18T06:44:40.236Z,5.80
2017-11-18T06:47:08.556Z,5.90
2017-11-18T06:49:36.121Z,5.90
2017-11-18T06:52:03.781Z,5.90
2017-11-18T06:54:32.120Z,5.90
2017-11-18T06:57:00.455Z,5.90
2017-11-18T06:59:28.100Z,5.90
2017-11-18T07:01:55.686Z,6.00
2017-11-18T07:04:23.254Z,6.00
2017-11-18T07:06:50.833Z,6.00
2017-11-18T07:09:19.170Z,6.00
2017-11-18T07:11:46.752Z,6.00
2017-11-18T07:14:14.317Z,6.10
2017-11-18T07:16:41.884Z,6.20
2017-11-18T07:19:09.465Z,6.20
2017-11-18T07:21:37.786Z,6.20
2017-11-18T07:24:05.376Z,6.20
2017-11-18T07:26:33.031Z,6.20
2017-11-18T07:29:00.649Z,6.30
2017-11-18T07:31:28.937Z,6.30
2017-11-18T07:33:56.484Z,6.30
2017-11-18T07:36:24.070Z,6.20
2017-11-18T07:38:52.392Z,6.20
2017-11-18T07:41:21.253Z,6.20
2017-11-18T07:43:48.854Z,6.20
2017-11-18T07:46:16.809Z,6.20
2017-11-18T07:48:44.486Z,6.10
2017-11-18T07:51:12.093Z,6.10
2017-11-18T07:53:39.655Z,6.10
2017-11-18T07:56:07.206Z,6.10
2017-11-18T07:58:34.800Z,6.10
2017-11-18T08:01:02.415Z,6.20
2017-11-18T08:03:30.005Z,6.20
2017-11-18T08:05:58.365Z,6.30
2017-11-18T08:08:25.929Z,6.30
2017-11-18T08:10:53.483Z,6.30
2017-11-18T08:13:21.068Z,6.40
2017-11-18T08:15:49.385Z,6.50
2017-11-18T08:18:16.969Z,6.50
2017-11-18T08:20:44.534Z,6.60
2017-11-18T08:23:12.119Z,6.60
2017-11-18T08:25:40.471Z,6.70
2017-11-18T08:28:08.036Z,6.70
2017-11-18T08:30:35.882Z,6.70
2017-11-18T08:33:03.436Z,6.60
2017-11-18T08:35:31.017Z,6.60
2017-11-18T08:37:58.588Z,6.60
2017-11-18T08:40:26.158Z,6.60
2017-11-18T08:42:54.512Z,6.70
2017-11-18T08:45:22.108Z,6.70
2017-11-18T08:47:50.469Z,6.90
2017-11-18T08:50:18.056Z,6.90
2017-11-18T08:52:46.425Z,7.10
2017-11-18T08:55:14.771Z,7.20
2017-11-18T08:57:43.124Z,7.10
2017-11-18T09:00:10.728Z,7.10
2017-11-18T09:02:38.325Z,7.20
2017-11-18T09:05:05.921Z,7.20
2017-11-18T09:07:33.515Z,7.20
2017-11-18T09:10:01.101Z,7.30
2017-11-18T09:12:28.702Z,7.30
2017-11-18T09:14:56.293Z,7.30
2017-11-18T09:17:23.855Z,7.40
2017-11-18T09:19:51.407Z,7.40
2017-11-18T09:22:19.001Z,7.50
2017-11-18T09:24:46.578Z,7.50
2017-11-18T09:27:14.147Z,7.50
2017-11-18T09:29:41.706Z,7.60
2017-11-18T09:32:09.280Z,7.60
2017-11-18T09:34:36.853Z,7.80
2017-11-18T09:37:04.423Z,7.80
2017-11-18T09:39:31.985Z,7.90
2017-11-18T09:41:59.605Z,7.90
2017-11-18T09:44:28.377Z,8.20
2017-11-18T09:46:56.771Z,8.20
2017-11-18T09:49:24.350Z,8.00
2017-11-18T09:51:51.952Z,8.00
2017-11-18T09:54:19.559Z,8.00
2017-11-18T09:56:47.110Z,8.10
2017-11-18T09:59:15.648Z,8.10
2017-11-18T10:01:43.234Z,8.30
2017-11-18T10:04:11.589Z,8.50
2017-11-18T10:06:39.170Z,8.40
2017-11-18T10:09:07.514Z,8.60
2017-11-18T10:11:35.965Z,8.50
2017-11-18T10:14:03.544Z,8.80
2017-11-18T10:16:31.123Z,8.60
2017-11-18T10:18:58.686Z,8.60
2017-11-18T10:21:26.240Z,8.40
2017-11-18T10:23:53.804Z,8.40
2017-11-18T10:26:21.359Z,8.60
2017-11-18T10:28:48.930Z,8.70
2017-11-18T10:31:16.493Z,8.90
2017-11-18T10:33:44.069Z,9.20
2017-11-18T10:36:12.411Z,9.60
2017-11-18T10:38:39.958Z,9.60
2017-11-18T10:41:07.531Z,9.70
2017-11-18T10:43:35.095Z,9.70
2017-11-18T10:46:02.666Z,10.40
2017-11-18T10:48:30.218Z,10.60
2017-11-18T10:50:57.832Z,10.70
2017-11-18T10:53:25.414Z,10.30
2017-11-18T10:55:53.010Z,10.10
2017-11-18T10:58:20.585Z,10.40
2017-11-18T11:00:48.933Z,9.90
2017-11-18T11:03:16.525Z,9.90
2017-11-18T11:05:44.880Z,10.00
2017-11-18T11:08:12.491Z,10.00
2017-11-18T11:10:40.076Z,10.10
2017-11-18T11:13:07.656Z,10.10
2017-11-18T11:15:43.140Z,10.00
2017-11-18T11:18:10.754Z,9.70
2017-11-18T11:20:38.327Z,9.60
2017-11-18T11:23:05.909Z,9.60
2017-11-18T11:25:34.246Z,9.30
2017-11-18T11:28:01.815Z,9.30
2017-11-18T11:30:29.414Z,9.20
2017-11-18T11:32:57.738Z,9.30
2017-11-18T11:35:25.323Z,9.30
2017-11-18T11:37:52.958Z,9.30
2017-11-18T11:40:20.515Z,9.30
2017-11-18T11:42:48.067Z,9.30
2017-11-18T11:45:15.648Z,9.80
2017-11-18T11:47:43.201Z,10.00
2017-11-18T11:50:10.773Z,10.10
2017-11-18T11:52:38.414Z,10.40
2017-11-18T11:55:05.985Z,10.00
2017-11-18T11:57:33.544Z,9.30
2017-11-18T12:00:01.115Z,9.10
2017-11-18T12:02:28.669Z,9.00
2017-11-18T12:04:56.226Z,8.50
2017-11-18T12:07:23.853Z,8.70
2017-11-18T12:09:51.422Z,8.90
2017-11-18T12:12:19.002Z,9.00
2017-11-18T12:14:46.551Z,8.60
2017-11-18T12:17:14.162Z,8.30
2017-11-18T12:19:41.738Z,8.20
2017-11-18T12:22:10.085Z,8.10
2017-11-18T12:24:37.662Z,8.10
2017-11-18T12:27:06.742Z,8.10
2017-11-18T12:29:34.348Z,8.10
2017-11-18T12:32:01.940Z,8.20
2017-11-18T12:34:29.514Z,8.10
2017-11-18T12:36:57.072Z,8.20
2017-11-18T12:39:24.673Z,8.20
2017-11-18T12:41:53.023Z,8.20
2017-11-18T12:44:20.624Z,8.20
2017-11-18T12:46:48.941Z,8.20
2017-11-18T12:49:16.548Z,8.20
2017-11-18T12:51:45.043Z,8.20
2017-11-18T12:54:13.402Z,8.40
2017-11-18T12:56:40.967Z,8.40
2017-11-18T12:59:09.328Z,8.30
2017-11-18T13:01:36.936Z,8.30
2017-11-18T13:04:04.514Z,8.50
2017-11-18T13:06:32.100Z,8.50
2017-11-18T13:08:59.902Z,8.50
2017-11-18T13:11:27.513Z,8.40
2017-11-18T13:13:55.083Z,8.40
2017-11-18T13:16:22.652Z,8.30
2017-11-18T13:18:52.299Z,8.40
2017-11-18T13:21:20.633Z,8.20
2017-11-18T13:23:48.182Z,8.20
2017-11-18T13:26:15.769Z,8.10
2017-11-18T13:28:43.328Z,8.20
2017-11-18T13:31:10.924Z,8.00
2017-11-18T13:33:39.241Z,7.90
2017-11-18T13:36:06.823Z,7.90
2017-11-18T13:38:34.406Z,7.80
2017-11-18T13:41:02.030Z,7.80
2017-11-18T13:43:29.633Z,7.70
2017-11-18T13:45:57.228Z,7.90
2017-11-18T13:48:24.799Z,7.80
2017-11-18T13:50:53.114Z,8.00
2017-11-18T13:53:20.698Z,7.90
2017-11-18T13:55:48.316Z,8.00
2017-11-18T13:58:15.899Z,7.90
2017-11-18T14:00:44.307Z,7.80
2017-11-18T14:03:11.881Z,7.70
2017-11-18T14:05:39.477Z,7.70
2017-11-18T14:08:07.818Z,7.60
2017-11-18T14:10:35.404Z,7.60
2017-11-18T14:13:03.758Z,7.80
2017-11-18T14:15:31.365Z,7.80
2017-11-18T14:17:58.963Z,7.70
2017-11-18T14:20:26.563Z,7.70
2017-11-18T14:22:54.928Z,7.70
2017-11-18T14:25:22.502Z,7.70
2017-11-18T14:27:50.839Z,7.60
2017-11-18T14:30:18.447Z,7.60
2017-11-18T14:32:46.790Z,7.60
2017-11-18T14:35:15.163Z,7.60
2017-11-18T14:37:42.751Z,7.50
2017-11-18T14:40:10.337Z,7.50
2017-11-18T14:42:38.715Z,7.50
2017-11-18T14:45:06.316Z,7.50
2017-11-18T14:47:33.897Z,7.30
2017-11-18T14:50:01.510Z,7.30
2017-11-18T14:52:29.119Z,7.20
2017-11-18T14:54:56.798Z,7.20
2017-11-18T14:57:24.379Z,7.00
2017-11-18T14:59:52.035Z,7.00
2017-11-18T15:02:20.406Z,6.80
2017-11-18T15:04:48.805Z,6.80
2017-11-18T15:07:16.437Z,6.70
2017-11-18T15:09:44.153Z,6.70
2017-11-18T15:12:11.799Z,6.80
2017-11-18T15:14:45.123Z,6.70
2017-11-18T15:17:18.260Z,6.70
2017-11-18T15:19:52.361Z,6.70
2017-11-18T15:22:25.636Z,6.60
2017-11-18T15:24:59.020Z,6.70
2017-11-18T15:27:32.136Z,6.80
2017-11-18T15:30:16.539Z,6.70
2017-11-18T15:33:01.575Z,6.60
2017-11-18T15:35:31.687Z,6.60
2017-11-18T15:38:02.868Z,6.60
2017-11-18T15:40:31.223Z,6.60
2017-11-18T15:43:01.449Z,6.60
2017-11-18T15:45:29.827Z,6.60
2017-11-18T15:48:03.091Z,6.60
2017-11-18T15:50:36.300Z,6.60
2017-11-18T15:53:20.572Z,6.50
2017-11-18T15:55:53.836Z,6.50
2017-11-18T15:58:22.205Z,6.50
2017-11-18T16:00:55.409Z,6.50
2017-11-18T16:03:23.730Z,6.50
2017-11-18T16:05:52.092Z,6.50
2017-11-18T16:08:19.748Z,6.50
2017-11-18T16:10:47.346Z,6.60
2017-11-18T16:13:15.691Z,6.50
2017-11-18T16:15:43.269Z,6.50
2017-11-18T16:18:11.654Z,6.50
2017-11-18T16:20:40.041Z,6.50
2017-11-18T16:23:08.388Z,6.60
2017-11-18T16:25:35.979Z,6.60
2017-11-18T16:28:04.316Z,6.50
2017-11-18T16:30:31.901Z,6.50
2017-11-18T16:33:00.284Z,6.40
2017-11-18T16:35:28.652Z,6.40
2017-11-18T16:37:56.225Z,6.40
2017-11-18T16:40:23.812Z,6.40
2017-11-18T16:42:51.451Z,6.50
2017-11-18T16:45:19.023Z,6.40
2017-11-18T16:47:47.424Z,6.50
2017-11-18T16:50:15.001Z,6.50
2017-11-18T16:52:42.624Z,6.50
2017-11-18T16:55:10.241Z,6.40
2017-11-18T16:57:37.846Z,6.40
2017-11-18T17:00:06.209Z,6.50
2017-11-18T17:02:33.815Z,6.50
2017-11-18T17:05:01.425Z,6.60
2017-11-18T17:07:29.035Z,6.60
2017-11-18T17:09:56.620Z,6.50
2017-11-18T17:12:24.204Z,6.50
2017-11-18T17:14:51.839Z,6.60
2017-11-18T17:17:19.442Z,6.50
2017-11-18T17:19:47.852Z,6.50
2017-11-18T17:22:15.451Z,6.50
2017-11-18T17:24:43.071Z,6.50
2017-11-18T17:27:10.663Z,6.50
2017-11-18T17:29:38.252Z,6.50
2017-11-18T17:32:05.991Z,6.60
2017-11-18T17:34:33.582Z,6.50
2017-11-18T17:37:01.171Z,6.50
2017-11-18T17:39:28.766Z,6.50
2017-11-18T17:41:56.360Z,6.50
2017-11-18T17:44:23.981Z,6.50
2017-11-18T17:46:51.586Z,6.50
2017-11-18T17:49:19.337Z,6.50
2017-11-18T17:51:46.940Z,6.50
2017-11-18T17:54:14.569Z,6.50
2017-11-18T17:56:42.399Z,6.50
2017-11-18T17:59:10.163Z,6.40
2017-11-18T18:01:37.807Z,6.40
2017-11-18T18:04:05.411Z,6.50
2017-11-18T18:06:33.306Z,6.40
2017-11-18T18:09:01.986Z,6.50
2017-11-18T18:11:29.771Z,6.50
2017-11-18T18:13:58.144Z,6.50
2017-11-18T18:16:26.509Z,6.40
2017-11-18T18:18:54.936Z,6.40
2017-11-18T18:21:23.232Z,6.40
2017-11-18T18:23:51.318Z,6.40
2017-11-18T18:26:18.925Z,6.30
2017-11-18T18:28:46.536Z,6.30
2017-11-18T18:31:14.336Z,6.30
2017-11-18T18:33:42.979Z,6.20
2017-11-18T18:36:10.918Z,6.20
2017-11-18T18:38:38.480Z,6.20
2017-11-18T18:41:06.292Z,6.20
2017-11-18T18:43:34.705Z,6.10
2017-11-18T18:46:03.318Z,6.10
2017-11-18T18:48:31.164Z,6.10
2017-11-18T18:50:59.115Z,6.10
2017-11-18T18:53:26.819Z,6.10
2017-11-18T18:55:54.556Z,6.10
2017-11-18T18:58:23.048Z,6.10
2017-11-18T19:00:50.869Z,6.00
2017-11-18T19:03:18.647Z,6.10
2017-11-18T19:05:46.697Z,6.20
2017-11-18T19:08:14.691Z,6.10
2017-11-18T19:10:42.349Z,6.20
2017-11-18T19:13:10.634Z,6.10
2017-11-18T19:15:38.319Z,6.10
2017-11-18T19:18:05.971Z,6.10
2017-11-18T19:20:34.373Z,6.10
2017-11-18T19:23:01.948Z,6.10
2017-11-18T19:25:29.693Z,6.10
2017-11-18T19:27:57.745Z,6.10
2017-11-18T19:30:25.370Z,6.10
2017-11-18T19:32:52.986Z,6.20
2017-11-18T19:35:20.725Z,6.20
2017-11-18T19:37:49.001Z,6.10
2017-11-18T19:40:16.861Z,6.20
2017-11-18T19:42:45.236Z,6.20
2017-11-18T19:45:12.825Z,6.20
2017-11-18T19:47:41.208Z,6.20
2017-11-18T19:50:09.993Z,6.20
2017-11-18T19:52:38.023Z,6.20
2017-11-18T19:55:05.633Z,6.30
2017-11-18T19:57:33.974Z,6.20
2017-11-18T20:00:01.581Z,6.20
2017-11-18T20:02:29.146Z,6.20
2017-11-18T20:04:56.870Z,6.20
2017-11-18T20:07:24.489Z,6.30
2017-11-18T20:09:52.160Z,6.30
2017-11-18T20:12:19.869Z,6.30
2017-11-18T20:14:48.318Z,6.30
2017-11-18T20:17:15.940Z,6.30
2017-11-18T20:19:43.532Z,6.20
2017-11-18T20:22:11.299Z,6.20
2017-11-18T20:24:39.064Z,6.20
2017-11-18T20:27:06.673Z,6.20
2017-11-18T20:29:35.019Z,6.20
2017-11-18T20:32:02.731Z,6.30
2017-11-18T20:34:30.412Z,6.30
2017-11-18T20:36:58.117Z,6.30
2017-11-18T20:39:25.694Z,6.20
2017-11-18T20:41:53.374Z,6.30
2017-11-18T20:44:21.086Z,6.30
2017-11-18T20:46:48.787Z,6.30
2017-11-18T20:49:16.413Z,6.30
2017-11-18T20:51:44.011Z,6.30
2017-11-18T20:54:12.376Z,6.30
2017-11-18T20:56:39.998Z,6.30
2017-11-18T20:59:07.984Z,6.30
2017-11-18T21:01:36.603Z,6.30
2017-11-18T21:04:05.150Z,6.30
2017-11-18T21:06:32.759Z,6.30
2017-11-18T21:09:01.127Z,6.30
2017-11-18T21:11:28.700Z,6.30
2017-11-18T21:13:57.040Z,6.20
2017-11-18T21:16:24.616Z,6.20
2017-11-18T21:18:52.183Z,6.30
2017-11-18T21:21:19.773Z,6.30
2017-11-18T21:23:48.123Z,6.30
2017-11-18T21:26:15.723Z,6.30
2017-11-18T21:28:43.310Z,6.30
2017-11-18T21:31:10.890Z,6.40
2017-11-18T21:33:38.460Z,6.30
2017-11-18T21:36:06.053Z,6.30
2017-11-18T21:38:34.396Z,6.30
2017-11-18T21:41:01.999Z,6.20
2017-11-18T21:43:29.606Z,6.30
2017-11-18T21:45:57.214Z,6.30
2017-11-18T21:48:25.553Z,6.40
2017-11-18T21:50:53.103Z,6.40
2017-11-18T21:53:23.524Z,6.40
2017-11-18T21:55:51.096Z,6.30
2017-11-18T21:58:18.683Z,6.40
2017-11-18T22:00:47.046Z,6.20
2017-11-18T22:03:14.644Z,6.20
2017-11-18T22:05:42.979Z,6.20
2017-11-18T22:08:10.586Z,6.20
2017-11-18T22:10:38.940Z,6.20
2017-11-18T22:13:06.518Z,6.20
2017-11-18T22:15:34.846Z,6.20
2017-11-18T22:18:02.419Z,6.20
2017-11-18T22:20:29.998Z,6.20
2017-11-18T22:22:57.575Z,6.10
2017-11-18T22:25:27.694Z,6.10
2017-11-18T22:27:56.041Z,6.10
2017-11-18T22:30:23.721Z,6.10
2017-11-18T22:32:52.043Z,6.10
2017-11-18T22:35:19.662Z,6.00
2017-11-18T22:37:47.251Z,6.10
2017-11-18T22:40:14.805Z,6.10
2017-11-18T22:42:43.144Z,6.00
2017-11-18T22:45:10.710Z,6.00
2017-11-18T22:47:38.310Z,5.90
2017-11-18T22:50:06.636Z,5.70
2017-11-18T22:52:34.213Z,5.80
2017-11-18T22:55:01.793Z,5.70
2017-11-18T22:57:30.143Z,5.60
2017-11-18T22:59:57.757Z,5.70
2017-11-18T23:02:25.349Z,5.70
2017-11-18T23:04:52.946Z,5.60
2017-11-18T23:07:20.539Z,5.60
2017-11-18T23:09:48.859Z,5.50
2017-11-18T23:12:16.434Z,5.50
2017-11-18T23:14:44.015Z,5.60
2017-11-18T23:17:12.349Z,5.50
2017-11-18T23:19:39.902Z,5.50
2017-11-18T23:22:07.488Z,5.40
2017-11-18T23:24:35.066Z,5.40
2017-11-18T23:27:03.421Z,5.40
2017-11-18T23:29:31.004Z,5.40
2017-11-18T23:31:58.577Z,5.30
2017-11-18T23:34:26.936Z,5.30
2017-11-18T23:36:54.569Z,5.30
2017-11-18T23:39:22.239Z,5.30
2017-11-18T23:41:49.821Z,5.30
2017-11-18T23:44:17.372Z,5.30
2017-11-18T23:46:44.958Z,5.30
2017-11-18T23:49:13.961Z,5.20
2017-11-18T23:51:42.309Z,5.20
2017-11-18T23:54:09.949Z,5.20
2017-11-18T23:56:37.525Z,5.10
2017-11-18T23:59:05.065Z,5.10
